createdAt,value
2023-05-08T00:01:32.235Z,100652.72
2023-05-08T00:06:33.423Z,100662.81
2023-05-08T00:11:34.697Z,100668.72
2023-05-08T00:16:35.885Z,100674.63
2023-05-08T00:21:37.196Z,100681.00
2023-05-08T00:26:38.399Z,100674.78
2023-05-08T00:31:39.602Z,100677.56
2023-05-08T00:36:40.794Z,100685.03
2023-05-08T00:41:42.614Z,100683.47
2023-05-08T00:46:43.857Z,100681.91
2023-05-08T00:51:45.082Z,100682.69
2023-05-08T00:56:46.315Z,100688.59
2023-05-08T01:01:47.739Z,100686.25
2023-05-08T01:06:48.989Z,100685.00
2023-05-08T01:11:50.321Z,100685.94
2023-05-08T01:16:51.478Z,100673.63
2023-05-08T01:21:52.666Z,100682.16
2023-05-08T01:26:53.818Z,100679.81
2023-05-08T01:31:55.049Z,100689.63
2023-05-08T01:36:56.275Z,100684.47
2023-05-08T01:41:57.452Z,100691.16
2023-05-08T01:46:58.738Z,100691.78
2023-05-08T01:52:00.079Z,100702.16
2023-05-08T01:57:01.300Z,100699.84
2023-05-08T02:02:03.813Z,100709.47
2023-05-08T02:07:05.060Z,100706.34
2023-05-08T02:12:06.455Z,100710.34
2023-05-08T02:17:09.264Z,100715.94
2023-05-08T02:22:10.587Z,100722.03
2023-05-08T02:27:11.771Z,100715.47
2023-05-08T02:32:13.207Z,100718.41
2023-05-08T02:37:14.431Z,100720.28
2023-05-08T02:42:15.792Z,100725.56
2023-05-08T02:47:16.966Z,100727.75
2023-05-08T02:52:18.174Z,100725.72
2023-05-08T02:57:19.299Z,100735.22
2023-05-08T03:02:20.664Z,100732.69
2023-05-08T03:07:21.842Z,100730.06
2023-05-08T03:12:23.089Z,100724.25
2023-05-08T03:17:24.346Z,100723.50
2023-05-08T03:22:25.637Z,100727.03
2023-05-08T03:27:27.044Z,100729.19
2023-05-08T03:32:28.313Z,100720.34
2023-05-08T03:37:29.581Z,100719.63
2023-05-08T03:42:30.783Z,100724.72
2023-05-08T03:47:31.971Z,100722.22
2023-05-08T03:52:33.229Z,100719.22
2023-05-08T03:57:34.401Z,100708.31
2023-05-08T04:02:35.766Z,100700.00
2023-05-08T04:07:37.043Z,100699.66
2023-05-08T04:12:38.342Z,100707.69
2023-05-08T04:17:39.606Z,100712.97
2023-05-08T04:22:41.056Z,100727.25
2023-05-08T04:27:43.518Z,100729.09
2023-05-08T04:32:46.474Z,100735.16
2023-05-08T04:37:48.160Z,100740.44
2023-05-08T04:42:49.365Z,100730.38
2023-05-08T04:47:50.617Z,100732.22
2023-05-08T04:52:51.911Z,100743.28
2023-05-08T04:57:53.187Z,100738.47
2023-05-08T05:02:54.569Z,100747.66
2023-05-08T05:07:55.920Z,100750.47
2023-05-08T05:12:57.225Z,100752.81
2023-05-08T05:17:58.520Z,100748.53
2023-05-08T05:22:59.706Z,100756.91
2023-05-08T05:28:01.412Z,100766.13
2023-05-08T05:33:02.803Z,100766.78
2023-05-08T05:38:03.992Z,100771.53
2023-05-08T05:43:05.156Z,100781.09
2023-05-08T05:48:06.461Z,100788.91
2023-05-08T05:53:07.768Z,100783.22
2023-05-08T05:58:09.060Z,100790.59
2023-05-08T06:03:13.892Z,100798.56
2023-05-08T06:08:17.348Z,100793.88
2023-05-08T06:13:18.694Z,100790.16
2023-05-08T06:18:19.984Z,100791.88
2023-05-08T06:23:21.509Z,100799.97
2023-05-08T06:28:24.399Z,100799.69
2023-05-08T06:33:26.989Z,100812.78
2023-05-08T06:38:28.379Z,100804.53
2023-05-08T06:43:30.551Z,100811.16
2023-05-08T06:48:31.741Z,100815.09
2023-05-08T06:53:32.943Z,100811.09
2023-05-08T06:58:34.248Z,100814.88
2023-05-08T07:03:35.686Z,100810.06
2023-05-08T07:08:36.952Z,100805.13
2023-05-08T07:13:38.178Z,100793.13
2023-05-08T07:18:39.483Z,100789.00
2023-05-08T07:23:40.762Z,100792.00
2023-05-08T07:28:41.993Z,100805.44
2023-05-08T07:33:43.366Z,100814.47
2023-05-08T07:38:44.587Z,100820.56
2023-05-08T07:43:45.818Z,100828.06
2023-05-08T07:48:47.026Z,100823.69
2023-05-08T07:53:49.787Z,100830.06
2023-05-08T07:58:51.019Z,100832.84
2023-05-08T08:03:54.323Z,100835.16
2023-05-08T08:08:55.602Z,100845.75
2023-05-08T08:13:56.795Z,100847.72
2023-05-08T08:18:57.926Z,100845.81
2023-05-08T08:23:59.608Z,100842.94
2023-05-08T08:29:00.783Z,100847.41
2023-05-08T08:34:01.980Z,100844.22
2023-05-08T08:39:03.525Z,100848.25
2023-05-08T08:44:04.739Z,100838.47
2023-05-08T08:49:06.065Z,100838.22
2023-05-08T08:54:07.680Z,100837.16
2023-05-08T08:59:08.899Z,100832.63
2023-05-08T09:04:10.721Z,100826.44
2023-05-08T09:09:12.031Z,100835.88
2023-05-08T09:14:13.232Z,100836.59
2023-05-08T09:19:15.007Z,100834.81
2023-05-08T09:24:16.259Z,100844.06
2023-05-08T09:29:17.620Z,100842.28
2023-05-08T09:34:18.916Z,100841.28
2023-05-08T09:39:20.278Z,100837.63
2023-05-08T09:44:21.413Z,100842.84
2023-05-08T09:49:22.694Z,100846.38
2023-05-08T09:54:23.906Z,100845.69
2023-05-08T09:59:26.170Z,100846.56
2023-05-08T10:04:27.398Z,100851.38
2023-05-08T10:09:38.841Z,100846.63
2023-05-08T10:14:48.479Z,100847.13
2023-05-08T10:19:49.647Z,100843.44
2023-05-08T10:24:50.947Z,100846.84
2023-05-08T10:29:52.160Z,100833.50
2023-05-08T10:34:53.659Z,100831.59
2023-05-08T10:39:54.872Z,100829.63
2023-05-08T10:44:56.096Z,100825.84
2023-05-08T10:49:57.246Z,100814.88
2023-05-08T10:55:04.579Z,100814.22
2023-05-08T11:00:05.837Z,100821.56
2023-05-08T11:05:07.050Z,100809.78
2023-05-08T11:10:08.323Z,100810.56
2023-05-08T11:15:10.195Z,100813.44
2023-05-08T11:20:11.504Z,100816.88
2023-05-08T11:25:12.922Z,100820.41
2023-05-08T11:30:14.230Z,100811.75
2023-05-08T11:35:15.606Z,100811.03
2023-05-08T11:40:16.759Z,100810.06
2023-05-08T11:45:17.993Z,100804.69
2023-05-08T11:50:19.241Z,100803.13
2023-05-08T11:55:20.478Z,100795.66
2023-05-08T12:00:21.711Z,100799.31
2023-05-08T12:05:22.934Z,100801.13
2023-05-08T12:10:24.115Z,100807.88
2023-05-08T12:15:25.383Z,100810.53
2023-05-08T12:20:26.564Z,100807.34
2023-05-08T12:25:27.756Z,100810.88
2023-05-08T12:30:28.986Z,100816.19
2023-05-08T12:35:30.383Z,100811.28
2023-05-08T12:40:31.612Z,100802.84
2023-05-08T12:45:33.712Z,100801.25
2023-05-08T12:50:34.904Z,100798.69
2023-05-08T12:55:36.297Z,100793.19
2023-05-08T13:00:37.490Z,100786.72
2023-05-08T13:05:38.749Z,100786.03
2023-05-08T13:10:39.884Z,100784.94
2023-05-08T13:15:41.054Z,100787.16
2023-05-08T13:20:42.282Z,100780.09
2023-05-08T13:25:43.453Z,100772.19
2023-05-08T13:30:44.634Z,100764.72
2023-05-08T13:35:45.945Z,100761.22
2023-05-08T13:40:47.148Z,100755.47
2023-05-08T13:45:48.409Z,100748.09
2023-05-08T13:50:49.582Z,100741.31
2023-05-08T13:55:51.038Z,100731.69
2023-05-08T14:00:53.103Z,100727.19
2023-05-08T14:05:54.310Z,100724.72
2023-05-08T14:10:55.532Z,100724.22
2023-05-08T14:15:56.810Z,100712.81
2023-05-08T14:20:57.951Z,100716.34
2023-05-08T14:25:59.189Z,100715.63
2023-05-08T14:31:00.530Z,100716.28
2023-05-08T14:36:01.750Z,100707.94
2023-05-08T14:41:04.576Z,100708.66
2023-05-08T14:46:06.047Z,100714.66
2023-05-08T14:51:07.315Z,100712.59
2023-05-08T14:56:08.651Z,100705.34
2023-05-08T15:01:09.944Z,100709.38
2023-05-08T15:06:11.235Z,100705.19
2023-05-08T15:11:12.389Z,100694.59
2023-05-08T15:16:13.734Z,100711.22
2023-05-08T15:21:15.020Z,100702.53
2023-05-08T15:26:16.306Z,100693.75
2023-05-08T15:31:17.571Z,100687.13
2023-05-08T15:36:18.910Z,100696.50
2023-05-08T15:41:20.149Z,100680.41
2023-05-08T15:46:21.440Z,100682.66
2023-05-08T15:51:22.739Z,100674.09
2023-05-08T15:56:26.818Z,100681.94
2023-05-08T16:01:28.008Z,100681.03
2023-05-08T16:06:29.154Z,100669.72
2023-05-08T16:11:30.616Z,100666.81
2023-05-08T16:16:31.989Z,100658.63
2023-05-08T16:21:33.203Z,100658.59
2023-05-08T16:26:34.428Z,100657.03
2023-05-08T16:31:35.709Z,100659.78
2023-05-08T16:36:37.017Z,100646.84
2023-05-08T16:41:38.240Z,100645.88
2023-05-08T16:46:39.501Z,100649.22
2023-05-08T16:51:40.869Z,100642.78
2023-05-08T16:56:42.149Z,100637.88
2023-05-08T17:01:43.531Z,100634.00
2023-05-08T17:06:44.845Z,100639.56
2023-05-08T17:11:46.088Z,100635.91
2023-05-08T17:16:47.613Z,100638.34
2023-05-08T17:21:48.908Z,100648.00
2023-05-08T17:26:50.198Z,100651.25
2023-05-08T17:31:51.487Z,100649.81
2023-05-08T17:36:54.506Z,100648.47
2023-05-08T17:41:56.669Z,100648.50
2023-05-08T17:46:57.946Z,100652.69
2023-05-08T17:52:04.895Z,100649.13
2023-05-08T17:57:06.172Z,100644.94
2023-05-08T18:02:07.465Z,100644.44
2023-05-08T18:07:08.932Z,100661.44
2023-05-08T18:12:10.251Z,100650.03
2023-05-08T18:17:22.359Z,100646.53
2023-05-08T18:22:23.627Z,100650.38
2023-05-08T18:27:26.354Z,100646.25
2023-05-08T18:32:27.608Z,100649.78
2023-05-08T18:37:28.986Z,100650.13
2023-05-08T18:42:30.458Z,100661.78
2023-05-08T18:47:31.775Z,100647.97
2023-05-08T18:52:33.020Z,100651.66
2023-05-08T18:57:34.295Z,100647.03
2023-05-08T19:02:35.609Z,100649.94
2023-05-08T19:07:37.204Z,100632.19
2023-05-08T19:12:38.425Z,100641.94
2023-05-08T19:17:39.790Z,100644.00
2023-05-08T19:22:41.105Z,100637.16
2023-05-08T19:27:42.307Z,100647.78
2023-05-08T19:32:43.518Z,100648.91
2023-05-08T19:37:45.015Z,100650.81
2023-05-08T19:42:46.362Z,100645.38
2023-05-08T19:47:48.061Z,100643.66
2023-05-08T19:52:49.479Z,100637.75
2023-05-08T19:57:50.862Z,100642.41
2023-05-08T20:02:52.238Z,100643.03
2023-05-08T20:07:53.566Z,100642.13
2023-05-08T20:12:54.779Z,100642.28
2023-05-08T20:17:56.067Z,100642.16
2023-05-08T20:22:57.945Z,100639.50
2023-05-08T20:27:59.140Z,100646.50
2023-05-08T20:33:04.705Z,100651.50
2023-05-08T20:38:06.200Z,100646.81
2023-05-08T20:43:07.454Z,100647.44
2023-05-08T20:48:08.910Z,100645.75
2023-05-08T20:53:10.306Z,100642.16
2023-05-08T20:58:11.516Z,100644.66
2023-05-08T21:03:12.716Z,100641.53
2023-05-08T21:08:13.893Z,100625.97
2023-05-08T21:13:15.143Z,100623.13
2023-05-08T21:18:16.398Z,100617.84
2023-05-08T21:23:17.605Z,100618.91
2023-05-08T21:28:18.797Z,100609.75
2023-05-08T21:33:20.570Z,100611.59
2023-05-08T21:38:21.773Z,100604.31
2023-05-08T21:43:22.967Z,100592.47
2023-05-08T21:48:24.392Z,100592.31
2023-05-08T21:53:25.927Z,100601.97
2023-05-08T21:58:27.141Z,100588.09
2023-05-08T22:03:28.495Z,100596.19
2023-05-08T22:08:29.789Z,100594.47
2023-05-08T22:13:31.175Z,100596.94
2023-05-08T22:18:32.332Z,100582.81
2023-05-08T22:23:33.573Z,100587.31
2023-05-08T22:28:34.834Z,100572.22
2023-05-08T22:33:36.817Z,100569.88
2023-05-08T22:38:37.998Z,100565.06
2023-05-08T22:43:39.229Z,100563.78
2023-05-08T22:48:40.503Z,100561.78
2023-05-08T22:53:41.650Z,100558.50
2023-05-08T22:58:42.854Z,100548.88
2023-05-08T23:03:44.055Z,100548.22
2023-05-08T23:08:45.349Z,100548.06
2023-05-08T23:13:46.931Z,100545.88
2023-05-08T23:18:48.187Z,100530.97
2023-05-08T23:23:49.385Z,100529.41
2023-05-08T23:28:50.572Z,100515.88
2023-05-08T23:33:51.800Z,100513.84
2023-05-08T23:38:52.964Z,100505.28
2023-05-08T23:43:54.672Z,100501.56
2023-05-08T23:48:55.948Z,100492.69
2023-05-08T23:53:57.182Z,100491.13
2023-05-08T23:58:58.431Z,100492.84
